sensor_id;sensor_type;location;lat;lon;timestamp;pressure;altitude;pressure_sealevel;temperature;humidity
14966;BME280;7577;45.226;5.798;2023-07-22T00:02:23;98989.63;;;31.68;35.64
14966;BME280;7577;45.226;5.798;2023-07-22T00:04:53;98989.03;;;31.69;35.61
14966;BME280;7577;45.226;5.798;2023-07-22T00:07:23;98990.22;;;31.68;35.61
14966;BME280;7577;45.226;5.798;2023-07-22T00:09:53;98982.98;;;31.67;35.61
14966;BME280;7577;45.226;5.798;2023-07-22T00:12:23;98990.02;;;31.67;35.59
14966;BME280;7577;45.226;5.798;2023-07-22T00:14:54;98994.87;;;31.66;35.59
14966;BME280;7577;45.226;5.798;2023-07-22T00:17:24;98990.23;;;31.64;35.61
14966;BME280;7577;45.226;5.798;2023-07-22T00:19:54;98992.45;;;31.65;35.58
14966;BME280;7577;45.226;5.798;2023-07-22T00:22:24;98992.66;;;31.62;35.57
14966;BME280;7577;45.226;5.798;2023-07-22T00:27:34;98980.37;;;31.64;35.54
14966;BME280;7577;45.226;5.798;2023-07-22T00:30:06;98980.58;;;31.62;35.54
14966;BME280;7577;45.226;5.798;2023-07-22T00:35:14;98975.13;;;31.63;35.53
14966;BME280;7577;45.226;5.798;2023-07-22T00:37:44;98974.55;;;31.60;35.49
14966;BME280;7577;45.226;5.798;2023-07-22T00:42:52;98969.11;;;31.61;35.51
14966;BME280;7577;45.226;5.798;2023-07-22T00:45:22;98966.91;;;31.57;35.50
14966;BME280;7577;45.226;5.798;2023-07-22T00:47:53;98977.55;;;31.57;35.50
14966;BME280;7577;45.226;5.798;2023-07-22T00:50:24;98973.32;;;31.57;35.48
14966;BME280;7577;45.226;5.798;2023-07-22T00:55:34;98967.52;;;31.60;35.44
14966;BME280;7577;45.226;5.798;2023-07-22T00:58:04;98971.32;;;31.58;35.44
14966;BME280;7577;45.226;5.798;2023-07-22T01:00:35;98967.89;;;31.55;35.42
14966;BME280;7577;45.226;5.798;2023-07-22T01:03:05;98972.93;;;31.55;35.43
14966;BME280;7577;45.226;5.798;2023-07-22T01:05:36;98970.70;;;31.55;35.45
14966;BME280;7577;45.226;5.798;2023-07-22T01:08:07;98975.16;;;31.56;35.43
14966;BME280;7577;45.226;5.798;2023-07-22T01:10:37;98969.73;;;31.53;35.46
14966;BME280;7577;45.226;5.798;2023-07-22T01:13:07;98972.13;;;31.51;35.44
14966;BME280;7577;45.226;5.798;2023-07-22T01:18:16;98964.87;;;31.54;35.42
14966;BME280;7577;45.226;5.798;2023-07-22T01:20:46;98956.64;;;31.51;35.41
14966;BME280;7577;45.226;5.798;2023-07-22T01:23:17;98953.81;;;31.51;35.36
14966;BME280;7577;45.226;5.798;2023-07-22T01:25:47;98957.03;;;31.50;35.39
14966;BME280;7577;45.226;5.798;2023-07-22T01:28:19;98961.26;;;31.50;35.39
14966;BME280;7577;45.226;5.798;2023-07-22T01:30:50;98964.47;;;31.48;35.38
14966;BME280;7577;45.226;5.798;2023-07-22T01:33:20;98962.28;;;31.48;35.39
14966;BME280;7577;45.226;5.798;2023-07-22T01:35:50;98956.45;;;31.47;35.39
14966;BME280;7577;45.226;5.798;2023-07-22T01:40:58;98957.86;;;31.47;35.35
14966;BME280;7577;45.226;5.798;2023-07-22T01:43:28;98956.63;;;31.44;35.36
14966;BME280;7577;45.226;5.798;2023-07-22T01:45:58;98952.20;;;31.43;35.33
14966;BME280;7577;45.226;5.798;2023-07-22T01:48:28;98960.06;;;31.44;35.36
14966;BME280;7577;45.226;5.798;2023-07-22T01:50:58;98962.69;;;31.43;35.35
14966;BME280;7577;45.226;5.798;2023-07-22T01:53:28;98962.88;;;31.44;35.32
14966;BME280;7577;45.226;5.798;2023-07-22T01:55:58;98964.09;;;31.43;35.32
14966;BME280;7577;45.226;5.798;2023-07-22T01:58:28;98966.69;;;31.42;35.34
14966;BME280;7577;45.226;5.798;2023-07-22T02:00:58;98972.94;;;31.41;35.31
14966;BME280;7577;45.226;5.798;2023-07-22T02:03:28;98976.97;;;31.40;35.32
14966;BME280;7577;45.226;5.798;2023-07-22T02:06:03;98979.16;;;31.41;35.31
14966;BME280;7577;45.226;5.798;2023-07-22T02:08:33;98980.56;;;31.41;35.31
14966;BME280;7577;45.226;5.798;2023-07-22T02:11:06;98975.95;;;31.39;35.33
14966;BME280;7577;45.226;5.798;2023-07-22T02:13:38;98977.36;;;31.39;35.32
14966;BME280;7577;45.226;5.798;2023-07-22T02:16:08;98977.17;;;31.38;35.32
14966;BME280;7577;45.226;5.798;2023-07-22T02:18:40;98979.55;;;31.39;35.32
14966;BME280;7577;45.226;5.798;2023-07-22T02:21:10;98977.56;;;31.36;35.31
14966;BME280;7577;45.226;5.798;2023-07-22T02:23:40;98972.72;;;31.37;35.32
14966;BME280;7577;45.226;5.798;2023-07-22T02:28:49;98969.51;;;31.38;35.30
14966;BME280;7577;45.226;5.798;2023-07-22T02:31:19;98978.16;;;31.36;35.31
14966;BME280;7577;45.226;5.798;2023-07-22T02:36:31;98978.16;;;31.36;35.31
14966;BME280;7577;45.226;5.798;2023-07-22T02:39:02;98980.58;;;31.34;35.32
14966;BME280;7577;45.226;5.798;2023-07-22T02:41:32;98978.36;;;31.33;35.31
14966;BME280;7577;45.226;5.798;2023-07-22T02:44:02;98982.19;;;31.31;35.31
14966;BME280;7577;45.226;5.798;2023-07-22T02:46:32;98982.19;;;31.31;35.32
14966;BME280;7577;45.226;5.798;2023-07-22T02:49:02;98990.64;;;31.31;35.32
14966;BME280;7577;45.226;5.798;2023-07-22T02:51:32;98989.63;;;31.30;35.32
14966;BME280;7577;45.226;5.798;2023-07-22T02:54:03;98991.82;;;31.30;35.32
14966;BME280;7577;45.226;5.798;2023-07-22T02:56:33;98998.07;;;31.30;35.29
14966;BME280;7577;45.226;5.798;2023-07-22T02:59:03;98993.84;;;31.30;35.29
14966;BME280;7577;45.226;5.798;2023-07-22T03:01:34;98997.25;;;31.29;35.31
14966;BME280;7577;45.226;5.798;2023-07-22T03:04:04;99001.87;;;31.28;35.27
14966;BME280;7577;45.226;5.798;2023-07-22T03:06:35;99003.08;;;31.27;35.33
14966;BME280;7577;45.226;5.798;2023-07-22T03:09:05;99005.91;;;31.27;35.29
14966;BME280;7577;45.226;5.798;2023-07-22T03:11:35;99006.48;;;31.26;35.30
14966;BME280;7577;45.226;5.798;2023-07-22T03:14:05;99012.74;;;31.26;35.30
14966;BME280;7577;45.226;5.798;2023-07-22T03:19:13;99025.80;;;31.28;35.31
14966;BME280;7577;45.226;5.798;2023-07-22T03:21:43;99030.84;;;31.25;35.31
14966;BME280;7577;45.226;5.798;2023-07-22T03:24:13;99029.02;;;31.23;35.31
14966;BME280;7577;45.226;5.798;2023-07-22T03:26:43;99036.05;;;31.23;35.32
14966;BME280;7577;45.226;5.798;2023-07-22T03:29:13;99047.31;;;31.23;35.30
14966;BME280;7577;45.226;5.798;2023-07-22T03:31:43;99052.12;;;31.22;35.31
14966;BME280;7577;45.226;5.798;2023-07-22T03:34:13;99057.33;;;31.20;35.32
14966;BME280;7577;45.226;5.798;2023-07-22T03:36:43;99058.54;;;31.19;35.33
14966;BME280;7577;45.226;5.798;2023-07-22T03:41:53;99062.77;;;31.19;35.34
14966;BME280;7577;45.226;5.798;2023-07-22T03:44:23;99068.98;;;31.15;35.34
14966;BME280;7577;45.226;5.798;2023-07-22T03:49:32;99069.18;;;31.16;35.32
14966;BME280;7577;45.226;5.798;2023-07-22T03:54:40;99080.24;;;31.15;35.30
14966;BME280;7577;45.226;5.798;2023-07-22T03:59:48;99080.63;;;31.14;35.29
14966;BME280;7577;45.226;5.798;2023-07-22T04:02:18;99087.87;;;31.11;35.29
14966;BME280;7577;45.226;5.798;2023-07-22T04:07:20;99096.08;;;31.07;35.33
14966;BME280;7577;45.226;5.798;2023-07-22T04:09:50;99096.70;;;31.06;35.32
14966;BME280;7577;45.226;5.798;2023-07-22T04:12:21;99096.31;;;31.08;35.31
14966;BME280;7577;45.226;5.798;2023-07-22T04:14:51;99091.86;;;31.07;35.30
14966;BME280;7577;45.226;5.798;2023-07-22T04:19:59;99102.33;;;31.06;35.27
14966;BME280;7577;45.226;5.798;2023-07-22T04:22:30;99112.56;;;31.05;35.28
14966;BME280;7577;45.226;5.798;2023-07-22T04:25:00;99102.52;;;31.04;35.29
14966;BME280;7577;45.226;5.798;2023-07-22T04:27:30;99105.92;;;31.03;35.33
14966;BME280;7577;45.226;5.798;2023-07-22T04:30:00;99108.15;;;31.04;35.31
14966;BME280;7577;45.226;5.798;2023-07-22T04:32:30;99110.34;;;31.04;35.31
14966;BME280;7577;45.226;5.798;2023-07-22T04:35:00;99110.96;;;31.04;35.31
14966;BME280;7577;45.226;5.798;2023-07-22T04:37:30;99112.37;;;31.04;35.32
14966;BME280;7577;45.226;5.798;2023-07-22T04:40:01;99114.17;;;31.02;35.29
14966;BME280;7577;45.226;5.798;2023-07-22T04:42:37;99108.73;;;31.03;35.29
14966;BME280;7577;45.226;5.798;2023-07-22T04:45:09;99110.34;;;31.01;35.29
14966;BME280;7577;45.226;5.798;2023-07-22T04:47:39;99119.98;;;31.00;35.31
14966;BME280;7577;45.226;5.798;2023-07-22T04:50:12;99115.57;;;30.99;35.32
14966;BME280;7577;45.226;5.798;2023-07-22T04:52:43;99114.36;;;31.00;35.34
14966;BME280;7577;45.226;5.798;2023-07-22T04:55:16;99110.33;;;30.97;35.34
14966;BME280;7577;45.226;5.798;2023-07-22T05:00:23;99117.37;;;31.01;35.36
14966;BME280;7577;45.226;5.798;2023-07-22T05:02:54;99118.77;;;30.97;35.37
14966;BME280;7577;45.226;5.798;2023-07-22T05:08:03;99115.57;;;30.99;35.37
14966;BME280;7577;45.226;5.798;2023-07-22T05:10:33;99120.97;;;30.98;35.34
14966;BME280;7577;45.226;5.798;2023-07-22T05:13:04;99120.77;;;30.97;35.32
14966;BME280;7577;45.226;5.798;2023-07-22T05:18:12;99123.78;;;30.98;35.32
14966;BME280;7577;45.226;5.798;2023-07-22T05:23:21;99132.22;;;30.98;35.30
14966;BME280;7577;45.226;5.798;2023-07-22T05:25:56;99132.02;;;30.93;35.31
14966;BME280;7577;45.226;5.798;2023-07-22T05:31:03;99131.83;;;30.96;35.29
14966;BME280;7577;45.226;5.798;2023-07-22T05:33:33;99137.45;;;30.92;35.30
14966;BME280;7577;45.226;5.798;2023-07-22T05:36:05;99125.37;;;30.92;35.29
14966;BME280;7577;45.226;5.798;2023-07-22T05:38:35;99118.73;;;30.94;35.25
14966;BME280;7577;45.226;5.798;2023-07-22T05:41:06;99124.16;;;30.93;35.26
14966;BME280;7577;45.226;5.798;2023-07-22T05:43:37;99133.23;;;30.96;35.23
14966;BME280;7577;45.226;5.798;2023-07-22T05:46:07;99139.25;;;30.94;35.24
14966;BME280;7577;45.226;5.798;2023-07-22T05:48:38;99135.84;;;30.95;35.25
14966;BME280;7577;45.226;5.798;2023-07-22T05:51:10;99140.07;;;30.95;35.28
14966;BME280;7577;45.226;5.798;2023-07-22T05:53:40;99136.44;;;30.94;35.26
14966;BME280;7577;45.226;5.798;2023-07-22T05:56:10;99153.91;;;30.94;35.31
14966;BME280;7577;45.226;5.798;2023-07-22T05:58:40;99150.13;;;30.96;35.29
14966;BME280;7577;45.226;5.798;2023-07-22T06:01:09;99155.31;;;30.94;35.33
14966;BME280;7577;45.226;5.798;2023-07-22T06:03:40;99154.53;;;30.93;35.33
14966;BME280;7577;45.226;5.798;2023-07-22T06:06:12;99152.92;;;30.92;35.37
14966;BME280;7577;45.226;5.798;2023-07-22T06:08:42;99148.89;;;30.90;35.39
14966;BME280;7577;45.226;5.798;2023-07-22T06:13:49;99155.12;;;30.93;35.38
14966;BME280;7577;45.226;5.798;2023-07-22T06:16:19;99160.94;;;30.90;35.39
14966;BME280;7577;45.226;5.798;2023-07-22T06:18:50;99160.73;;;30.89;35.40
14966;BME280;7577;45.226;5.798;2023-07-22T06:21:20;99167.57;;;30.88;35.41
14966;BME280;7577;45.226;5.798;2023-07-22T06:26:28;99166.77;;;30.91;35.39
14966;BME280;7577;45.226;5.798;2023-07-22T06:28:58;99165.34;;;30.88;35.38
14966;BME280;7577;45.226;5.798;2023-07-22T06:31:28;99163.94;;;30.88;35.41
14966;BME280;7577;45.226;5.798;2023-07-22T06:33:59;99158.90;;;30.87;35.40
14966;BME280;7577;45.226;5.798;2023-07-22T06:36:29;99161.13;;;30.88;35.42
14966;BME280;7577;45.226;5.798;2023-07-22T06:39:00;99161.13;;;30.88;35.40
14966;BME280;7577;45.226;5.798;2023-07-22T06:41:30;99159.92;;;30.89;35.40
14966;BME280;7577;45.226;5.798;2023-07-22T06:46:37;99171.21;;;30.92;35.37
14966;BME280;7577;45.226;5.798;2023-07-22T06:49:08;99172.19;;;30.90;35.38
14966;BME280;7577;45.226;5.798;2023-07-22T06:51:39;99171.99;;;30.89;35.38
14966;BME280;7577;45.226;5.798;2023-07-22T06:54:09;99170.58;;;30.89;35.35
14966;BME280;7577;45.226;5.798;2023-07-22T06:56:40;99171.41;;;30.90;35.37
14966;BME280;7577;45.226;5.798;2023-07-22T06:59:09;99168.59;;;30.90;35.36
14966;BME280;7577;45.226;5.798;2023-07-22T07:01:39;99167.77;;;30.89;35.37
14966;BME280;7577;45.226;5.798;2023-07-22T07:04:10;99165.77;;;30.90;35.36
14966;BME280;7577;45.226;5.798;2023-07-22T07:06:40;99166.77;;;30.91;35.36
14966;BME280;7577;45.226;5.798;2023-07-22T07:09:10;99170.20;;;30.91;35.34
14966;BME280;7577;45.226;5.798;2023-07-22T07:11:39;99164.95;;;30.89;35.39
14966;BME280;7577;45.226;5.798;2023-07-22T07:14:10;99159.33;;;30.89;35.38
14966;BME280;7577;45.226;5.798;2023-07-22T07:19:21;99170.59;;;30.93;35.34
14966;BME280;7577;45.226;5.798;2023-07-22T07:21:51;99167.97;;;30.90;35.36
14966;BME280;7577;45.226;5.798;2023-07-22T07:24:21;99162.53;;;30.88;35.41
14966;BME280;7577;45.226;5.798;2023-07-22T07:26:51;99161.72;;;30.87;35.47
14966;BME280;7577;45.226;5.798;2023-07-22T07:29:21;99165.93;;;30.87;35.47
14966;BME280;7577;45.226;5.798;2023-07-22T07:31:51;99165.93;;;30.87;35.48
14966;BME280;7577;45.226;5.798;2023-07-22T07:34:21;99159.32;;;30.86;35.52
14966;BME280;7577;45.226;5.798;2023-07-22T07:36:51;99161.52;;;30.86;35.51
14966;BME280;7577;45.226;5.798;2023-07-22T07:39:21;99156.91;;;30.88;35.53
14966;BME280;7577;45.226;5.798;2023-07-22T07:41:51;99155.30;;;30.87;35.54
14966;BME280;7577;45.226;5.798;2023-07-22T07:44:21;99154.48;;;30.86;35.56
14966;BME280;7577;45.226;5.798;2023-07-22T07:46:51;99146.86;;;30.87;35.59
14966;BME280;7577;45.226;5.798;2023-07-22T07:49:21;99146.04;;;30.86;35.63
14966;BME280;7577;45.226;5.798;2023-07-22T07:54:29;99149.09;;;30.91;35.60
14966;BME280;7577;45.226;5.798;2023-07-22T07:56:59;99148.27;;;30.87;35.62
14966;BME280;7577;45.226;5.798;2023-07-22T07:59:29;99154.68;;;30.87;35.64
14966;BME280;7577;45.226;5.798;2023-07-22T08:01:59;99142.84;;;30.88;35.59
14966;BME280;7577;45.226;5.798;2023-07-22T08:04:29;99149.28;;;30.88;35.58
14966;BME280;7577;45.226;5.798;2023-07-22T08:06:59;99146.08;;;30.90;35.58
14966;BME280;7577;45.226;5.798;2023-07-22T08:09:29;99146.47;;;30.88;35.59
14966;BME280;7577;45.226;5.798;2023-07-22T08:11:59;99142.84;;;30.88;35.65
14966;BME280;7577;45.226;5.798;2023-07-22T08:14:30;99146.23;;;30.87;35.64
14966;BME280;7577;45.226;5.798;2023-07-22T08:17:01;99147.26;;;30.89;35.64
14966;BME280;7577;45.226;5.798;2023-07-22T08:19:30;99148.08;;;30.89;35.67
14966;BME280;7577;45.226;5.798;2023-07-22T08:22:00;99146.47;;;30.88;35.67
14966;BME280;7577;45.226;5.798;2023-07-22T08:27:08;99150.51;;;30.94;35.66
14966;BME280;7577;45.226;5.798;2023-07-22T08:32:16;99144.29;;;30.95;35.65
14966;BME280;7577;45.226;5.798;2023-07-22T08:34:46;99147.30;;;30.92;35.65
14966;BME280;7577;45.226;5.798;2023-07-22T08:37:16;99149.49;;;30.93;35.65
14966;BME280;7577;45.226;5.798;2023-07-22T08:39:46;99145.66;;;30.91;35.67
14966;BME280;7577;45.226;5.798;2023-07-22T08:42:18;99146.67;;;30.93;35.67
14966;BME280;7577;45.226;5.798;2023-07-22T08:44:50;99145.07;;;30.92;35.69
14966;BME280;7577;45.226;5.798;2023-07-22T08:47:23;99147.88;;;30.92;35.66
14966;BME280;7577;45.226;5.798;2023-07-22T08:52:34;99149.30;;;30.95;35.68
14966;BME280;7577;45.226;5.798;2023-07-22T08:55:06;99151.52;;;30.92;35.68
14966;BME280;7577;45.226;5.798;2023-07-22T08:57:39;99154.53;;;30.93;35.67
14966;BME280;7577;45.226;5.798;2023-07-22T09:00:10;99148.91;;;30.93;35.68
14966;BME280;7577;45.226;5.798;2023-07-22T09:02:42;99146.28;;;30.94;35.66
14966;BME280;7577;45.226;5.798;2023-07-22T09:05:13;99148.91;;;30.93;35.69
14966;BME280;7577;45.226;5.798;2023-07-22T09:07:44;99149.92;;;30.95;35.68
14966;BME280;7577;45.226;5.798;2023-07-22T09:10:17;99154.14;;;30.95;35.69
14966;BME280;7577;45.226;5.798;2023-07-22T09:12:48;99151.91;;;30.94;35.69
14966;BME280;7577;45.226;5.798;2023-07-22T09:15:19;99138.86;;;30.92;35.73
14966;BME280;7577;45.226;5.798;2023-07-22T09:17:52;99141.25;;;30.94;35.69
14966;BME280;7577;45.226;5.798;2023-07-22T09:20:22;99134.21;;;30.94;35.67
14966;BME280;7577;45.226;5.798;2023-07-22T09:22:52;99139.84;;;30.94;35.67
14966;BME280;7577;45.226;5.798;2023-07-22T09:28:02;99132.65;;;30.96;35.61
14966;BME280;7577;45.226;5.798;2023-07-22T09:30:34;99128.81;;;30.95;35.60
14966;BME280;7577;45.226;5.798;2023-07-22T09:33:06;99135.03;;;30.94;35.59
14966;BME280;7577;45.226;5.798;2023-07-22T09:35:46;99135.84;;;30.95;35.58
14966;BME280;7577;45.226;5.798;2023-07-22T09:38:24;99129.60;;;30.95;35.57
14966;BME280;7577;45.226;5.798;2023-07-22T09:40:55;99135.84;;;30.95;35.57
14966;BME280;7577;45.226;5.798;2023-07-22T09:43:25;99131.83;;;30.96;35.58
14966;BME280;7577;45.226;5.798;2023-07-22T09:45:55;99131.23;;;30.96;35.58
14966;BME280;7577;45.226;5.798;2023-07-22T09:48:25;99134.05;;;30.96;35.58
14966;BME280;7577;45.226;5.798;2023-07-22T09:53:37;99121.78;;;30.98;35.55
14966;BME280;7577;45.226;5.798;2023-07-22T09:56:08;99133.44;;;30.97;35.50
14966;BME280;7577;45.226;5.798;2023-07-22T09:58:39;99129.41;;;30.98;35.47
14966;BME280;7577;45.226;5.798;2023-07-22T10:01:10;99128.82;;;30.98;35.45
14966;BME280;7577;45.226;5.798;2023-07-22T10:03:43;99122.17;;;30.97;35.46
14966;BME280;7577;45.226;5.798;2023-07-22T10:08:53;99124.02;;;30.99;35.40
14966;BME280;7577;45.226;5.798;2023-07-22T10:11:26;99114.95;;;30.96;35.35
14966;BME280;7577;45.226;5.798;2023-07-22T10:16:35;99116.16;;;30.98;35.40
14966;BME280;7577;45.226;5.798;2023-07-22T10:19:06;99110.14;;;30.96;35.36
14966;BME280;7577;45.226;5.798;2023-07-22T10:21:39;99106.90;;;30.98;35.33
14966;BME280;7577;45.226;5.798;2023-07-22T10:24:10;99100.68;;;30.98;35.33
14966;BME280;7577;45.226;5.798;2023-07-22T10:29:20;99102.91;;;30.99;35.24
14966;BME280;7577;45.226;5.798;2023-07-22T10:31:50;99095.25;;;30.96;35.17
14966;BME280;7577;45.226;5.798;2023-07-22T10:34:23;99100.88;;;30.96;35.20
14966;BME280;7577;45.226;5.798;2023-07-22T10:36:55;99097.24;;;30.95;35.16
14966;BME280;7577;45.226;5.798;2023-07-22T10:39:28;99089.62;;;30.96;35.09
14966;BME280;7577;45.226;5.798;2023-07-22T10:42:02;99089.62;;;30.96;35.04
14966;BME280;7577;45.226;5.798;2023-07-22T10:44:33;99085.59;;;30.97;35.04
14966;BME280;7577;45.226;5.798;2023-07-22T10:47:05;99087.82;;;30.97;35.06
14966;BME280;7577;45.226;5.798;2023-07-22T10:49:47;99088.84;;;30.99;35.02
14966;BME280;7577;45.226;5.798;2023-07-22T10:52:38;99082.39;;;30.98;35.00
14966;BME280;7577;45.226;5.798;2023-07-22T10:55:17;99076.38;;;31.00;34.98
14966;BME280;7577;45.226;5.798;2023-07-22T10:57:53;99077.98;;;31.01;35.00
14966;BME280;7577;45.226;5.798;2023-07-22T11:03:13;99073.17;;;31.05;34.97
14966;BME280;7577;45.226;5.798;2023-07-22T11:05:51;99063.52;;;31.02;34.93
14966;BME280;7577;45.226;5.798;2023-07-22T11:08:40;99066.53;;;31.03;34.94
14966;BME280;7577;45.226;5.798;2023-07-22T11:11:12;99058.48;;;31.02;34.93
14966;BME280;7577;45.226;5.798;2023-07-22T11:13:42;99054.68;;;31.04;34.90
14966;BME280;7577;45.226;5.798;2023-07-22T11:18:51;99052.26;;;31.06;34.85
14966;BME280;7577;45.226;5.798;2023-07-22T11:21:21;99052.45;;;31.03;34.90
14966;BME280;7577;45.226;5.798;2023-07-22T11:23:51;99048.23;;;31.03;34.89
14966;BME280;7577;45.226;5.798;2023-07-22T11:26:22;99052.88;;;31.05;34.88
14966;BME280;7577;45.226;5.798;2023-07-22T11:28:52;99042.80;;;31.04;34.86
14966;BME280;7577;45.226;5.798;2023-07-22T11:31:23;99040.22;;;31.05;34.85
14966;BME280;7577;45.226;5.798;2023-07-22T11:33:55;99035.38;;;31.06;34.83
14966;BME280;7577;45.226;5.798;2023-07-22T11:36:26;99029.16;;;31.06;34.83
14966;BME280;7577;45.226;5.798;2023-07-22T11:39:03;99030.36;;;31.05;34.83
14966;BME280;7577;45.226;5.798;2023-07-22T11:41:35;99029.94;;;31.07;34.82
14966;BME280;7577;45.226;5.798;2023-07-22T11:44:06;99028.53;;;31.07;34.81
14966;BME280;7577;45.226;5.798;2023-07-22T11:46:47;99027.36;;;31.08;34.78
14966;BME280;7577;45.226;5.798;2023-07-22T11:49:24;99020.09;;;31.07;34.77
14966;BME280;7577;45.226;5.798;2023-07-22T11:51:59;99018.91;;;31.08;34.76
14966;BME280;7577;45.226;5.798;2023-07-22T11:54:31;99011.45;;;31.09;34.77
14966;BME280;7577;45.226;5.798;2023-07-22T11:59:50;99013.28;;;31.11;34.55
14966;BME280;7577;45.226;5.798;2023-07-22T12:02:22;99015.90;;;31.10;34.53
14966;BME280;7577;45.226;5.798;2023-07-22T12:04:54;99009.87;;;31.12;34.53
14966;BME280;7577;45.226;5.798;2023-07-22T12:07:25;99009.25;;;31.12;34.57
14966;BME280;7577;45.226;5.798;2023-07-22T12:09:57;99009.25;;;31.12;34.56
14966;BME280;7577;45.226;5.798;2023-07-22T12:12:34;99006.64;;;31.13;34.36
14966;BME280;7577;45.226;5.798;2023-07-22T12:15:10;99005.23;;;31.13;34.24
14966;BME280;7577;45.226;5.798;2023-07-22T12:17:48;98998.19;;;31.13;34.18
14966;BME280;7577;45.226;5.798;2023-07-22T12:23:01;98990.77;;;31.15;34.16
14966;BME280;7577;45.226;5.798;2023-07-22T12:25:32;98991.78;;;31.13;34.29
14966;BME280;7577;45.226;5.798;2023-07-22T12:28:04;98989.16;;;31.14;34.29
14966;BME280;7577;45.226;5.798;2023-07-22T12:30:35;98990.95;;;31.16;34.18
14966;BME280;7577;45.226;5.798;2023-07-22T12:33:05;98988.14;;;31.16;34.14
14966;BME280;7577;45.226;5.798;2023-07-22T12:38:15;98984.96;;;31.21;33.91
14966;BME280;7577;45.226;5.798;2023-07-22T12:40:45;98984.94;;;31.17;33.97
14966;BME280;7577;45.226;5.798;2023-07-22T12:43:15;98986.77;;;31.19;33.98
14966;BME280;7577;45.226;5.798;2023-07-22T12:45:45;98984.54;;;31.19;33.98
14966;BME280;7577;45.226;5.798;2023-07-22T12:48:16;98982.73;;;31.20;33.97
14966;BME280;7577;45.226;5.798;2023-07-22T12:50:46;98977.11;;;31.20;33.96
14966;BME280;7577;45.226;5.798;2023-07-22T12:53:16;98971.48;;;31.20;33.95
14966;BME280;7577;45.226;5.798;2023-07-22T12:55:46;98974.48;;;31.21;33.80
14966;BME280;7577;45.226;5.798;2023-07-22T12:58:16;98973.92;;;31.22;33.85
14966;BME280;7577;45.226;5.798;2023-07-22T13:00:46;98968.09;;;31.24;33.75
14966;BME280;7577;45.226;5.798;2023-07-22T13:03:16;98969.70;;;31.25;33.77
14966;BME280;7577;45.226;5.798;2023-07-22T13:05:46;98957.23;;;31.26;33.74
14966;BME280;7577;45.226;5.798;2023-07-22T13:08:17;98965.08;;;31.27;33.66
14966;BME280;7577;45.226;5.798;2023-07-22T13:10:47;98952.21;;;31.29;33.66
14966;BME280;7577;45.226;5.798;2023-07-22T13:13:18;98954.04;;;31.31;33.60
14966;BME280;7577;45.226;5.798;2023-07-22T13:18:26;98954.23;;;31.36;33.49
14966;BME280;7577;45.226;5.798;2023-07-22T13:20:56;98959.85;;;31.36;33.54
14966;BME280;7577;45.226;5.798;2023-07-22T13:23:26;98963.09;;;31.38;33.48
14966;BME280;7577;45.226;5.798;2023-07-22T13:25:56;98960.07;;;31.40;33.49
14966;BME280;7577;45.226;5.798;2023-07-22T13:28:26;98964.09;;;31.43;33.42
14966;BME280;7577;45.226;5.798;2023-07-22T13:30:56;98964.09;;;31.43;33.43
14966;BME280;7577;45.226;5.798;2023-07-22T13:33:26;98960.84;;;31.44;33.35
14966;BME280;7577;45.226;5.798;2023-07-22T13:35:56;98962.48;;;31.45;33.34
14966;BME280;7577;45.226;5.798;2023-07-22T13:38:26;98958.84;;;31.48;33.32
14966;BME280;7577;45.226;5.798;2023-07-22T13:40:57;98966.30;;;31.50;33.36
14966;BME280;7577;45.226;5.798;2023-07-22T13:43:26;98960.27;;;31.52;33.23
14966;BME280;7577;45.226;5.798;2023-07-22T13:45:57;98954.23;;;31.53;33.14
14966;BME280;7577;45.226;5.798;2023-07-22T13:48:27;98960.45;;;31.56;33.19
14966;BME280;7577;45.226;5.798;2023-07-22T13:50:57;98954.23;;;31.57;33.16
14966;BME280;7577;45.226;5.798;2023-07-22T13:53:27;98958.44;;;31.60;33.18
14966;BME280;7577;45.226;5.798;2023-07-22T13:55:58;98954.41;;;31.61;33.12
14966;BME280;7577;45.226;5.798;2023-07-22T13:58:28;98963.28;;;31.63;33.17
14966;BME280;7577;45.226;5.798;2023-07-22T14:00:58;98957.63;;;31.67;33.15
14966;BME280;7577;45.226;5.798;2023-07-22T14:03:28;98954.81;;;31.67;33.17
14966;BME280;7577;45.226;5.798;2023-07-22T14:05:58;98951.20;;;31.70;33.09
14966;BME280;7577;45.226;5.798;2023-07-22T14:11:06;98942.33;;;31.75;33.08
14966;BME280;7577;45.226;5.798;2023-07-22T14:13:36;98941.15;;;31.76;33.02
14966;BME280;7577;45.226;5.798;2023-07-22T14:16:05;98939.34;;;31.77;33.01
14966;BME280;7577;45.226;5.798;2023-07-22T14:21:13;98936.30;;;31.83;32.88
14966;BME280;7577;45.226;5.798;2023-07-22T14:23:43;98938.92;;;31.82;32.86
14966;BME280;7577;45.226;5.798;2023-07-22T14:26:13;98944.34;;;31.85;32.88
14966;BME280;7577;45.226;5.798;2023-07-22T14:28:43;98937.31;;;31.88;32.89
14966;BME280;7577;45.226;5.798;2023-07-22T14:31:13;98941.34;;;31.91;32.85
14966;BME280;7577;45.226;5.798;2023-07-22T14:33:43;98936.90;;;31.93;32.81
14966;BME280;7577;45.226;5.798;2023-07-22T14:36:13;98927.61;;;31.96;32.81
14966;BME280;7577;45.226;5.798;2023-07-22T14:38:43;98923.61;;;31.97;32.78
14966;BME280;7577;45.226;5.798;2023-07-22T14:41:14;98927.22;;;32.01;32.71
14966;BME280;7577;45.226;5.798;2023-07-22T14:43:44;98925.81;;;32.01;32.67
14966;BME280;7577;45.226;5.798;2023-07-22T14:46:14;98924.98;;;32.04;32.66
14966;BME280;7577;45.226;5.798;2023-07-22T14:48:44;98919.75;;;32.06;32.66
14966;BME280;7577;45.226;5.798;2023-07-22T14:51:15;98920.14;;;32.08;32.67
14966;BME280;7577;45.226;5.798;2023-07-22T14:53:44;98926.19;;;32.10;32.65
14966;BME280;7577;45.226;5.798;2023-07-22T14:56:15;98918.30;;;32.13;32.66
14966;BME280;7577;45.226;5.798;2023-07-22T14:58:45;98918.49;;;32.14;32.58
14966;BME280;7577;45.226;5.798;2023-07-22T15:01:15;98918.91;;;32.16;32.55
14966;BME280;7577;45.226;5.798;2023-07-22T15:03:45;98927.14;;;32.19;32.55
14966;BME280;7577;45.226;5.798;2023-07-22T15:06:15;98922.70;;;32.21;32.43
14966;BME280;7577;45.226;5.798;2023-07-22T15:08:46;98928.75;;;32.23;32.41
14966;BME280;7577;45.226;5.798;2023-07-22T15:11:16;98920.08;;;32.26;32.42
14966;BME280;7577;45.226;5.798;2023-07-22T15:13:46;98929.77;;;32.28;32.39
14966;BME280;7577;45.226;5.798;2023-07-22T15:16:17;98933.78;;;32.31;32.36
14966;BME280;7577;45.226;5.798;2023-07-22T15:21:25;98929.13;;;32.36;32.35